createdAt,value
2022-09-26T00:01:44.823Z,100.00
2022-09-26T00:04:50.429Z,100.00
2022-09-26T00:07:55.700Z,100.00
2022-09-26T00:11:01.407Z,100.00
2022-09-26T00:14:06.802Z,100.00
2022-09-26T00:17:12.467Z,100.00
2022-09-26T00:20:18.337Z,100.00
2022-09-26T00:23:23.903Z,100.00
2022-09-26T00:26:29.503Z,100.00
2022-09-26T00:29:35.779Z,100.00
2022-09-26T00:32:41.284Z,100.00
2022-09-26T00:35:47.208Z,100.00
2022-09-26T00:38:52.775Z,100.00
2022-09-26T00:42:01.581Z,100.00
2022-09-26T00:45:07.512Z,100.00
2022-09-26T00:48:13.164Z,100.00
2022-09-26T00:51:18.551Z,100.00
2022-09-26T00:54:23.864Z,100.00
2022-09-26T00:57:29.153Z,100.00
2022-09-26T01:00:35.259Z,100.00
2022-09-26T01:03:40.904Z,100.00
2022-09-26T01:06:46.353Z,100.00
2022-09-26T01:09:51.744Z,100.00
2022-09-26T01:12:57.452Z,100.00
2022-09-26T01:16:03.205Z,100.00
2022-09-26T01:19:09.680Z,100.00
2022-09-26T01:22:15.189Z,100.00
2022-09-26T01:25:20.957Z,100.00
2022-09-26T01:28:27.256Z,100.00
2022-09-26T01:31:32.452Z,100.00
2022-09-26T01:34:37.809Z,100.00
2022-09-26T01:37:43.200Z,100.00
2022-09-26T01:40:48.923Z,100.00
2022-09-26T01:43:54.709Z,100.00
2022-09-26T01:47:00.240Z,100.00
2022-09-26T01:50:06.632Z,100.00
2022-09-26T01:53:20.377Z,100.00
2022-09-26T01:56:26.492Z,100.00
2022-09-26T01:59:32.417Z,100.00
2022-09-26T02:02:38.015Z,100.00
2022-09-26T02:05:44.073Z,100.00
2022-09-26T02:08:50.024Z,100.00
2022-09-26T02:11:55.592Z,100.00
2022-09-26T02:15:01.276Z,100.00
2022-09-26T02:18:06.721Z,100.00
2022-09-26T02:21:12.598Z,100.00
2022-09-26T02:24:18.241Z,100.00
2022-09-26T02:27:23.671Z,100.00
2022-09-26T02:30:29.147Z,100.00
2022-09-26T02:33:34.893Z,100.00
2022-09-26T02:36:40.372Z,100.00
2022-09-26T02:39:56.127Z,100.00
2022-09-26T02:43:01.772Z,100.00
2022-09-26T02:46:09.176Z,100.00
2022-09-26T02:49:15.391Z,100.00
2022-09-26T02:52:21.899Z,100.00
2022-09-26T02:58:47.505Z,100.00
2022-09-26T03:01:53.533Z,100.00
2022-09-26T03:04:58.994Z,100.00
2022-09-26T03:08:05.388Z,100.00
2022-09-26T03:11:11.206Z,100.00
2022-09-26T03:14:16.743Z,100.00
2022-09-26T03:17:22.703Z,100.00
2022-09-26T03:20:28.561Z,100.00
2022-09-26T03:23:34.554Z,100.00
2022-09-26T03:26:40.261Z,100.00
2022-09-26T03:29:46.530Z,100.00
2022-09-26T03:32:52.254Z,100.00
2022-09-26T03:36:01.370Z,100.00
2022-09-26T03:39:07.034Z,100.00
2022-09-26T03:42:14.337Z,100.00
2022-09-26T03:45:20.045Z,100.00
2022-09-26T03:48:26.194Z,100.00
2022-09-26T03:51:31.964Z,100.00
2022-09-26T03:54:37.551Z,100.00
2022-09-26T03:58:07.812Z,100.00
2022-09-26T04:01:13.242Z,100.00
2022-09-26T04:04:19.105Z,100.00
2022-09-26T04:07:47.367Z,100.00
2022-09-26T04:10:52.952Z,100.00
2022-09-26T04:14:06.885Z,100.00
2022-09-26T04:17:14.323Z,100.00
2022-09-26T04:20:20.468Z,100.00
2022-09-26T04:23:26.335Z,100.00
2022-09-26T04:26:32.271Z,100.00
2022-09-26T04:29:45.265Z,100.00
2022-09-26T04:32:51.350Z,100.00
2022-09-26T04:35:59.766Z,100.00
2022-09-26T04:39:05.807Z,100.00
2022-09-26T04:42:11.536Z,100.00
2022-09-26T04:45:17.009Z,100.00
2022-09-26T04:48:22.831Z,100.00
2022-09-26T04:51:28.867Z,100.00
2022-09-26T04:54:37.464Z,100.00
2022-09-26T04:57:43.040Z,100.00
2022-09-26T05:00:49.805Z,100.00
2022-09-26T05:03:57.506Z,100.00
2022-09-26T05:07:03.778Z,100.00
2022-09-26T05:10:13.855Z,100.00
2022-09-26T05:13:19.117Z,100.00
2022-09-26T05:19:49.452Z,100.00
2022-09-26T05:22:55.272Z,100.00
2022-09-26T05:26:18.801Z,100.00
2022-09-26T05:29:24.927Z,100.00
2022-09-26T05:32:30.726Z,100.00
2022-09-26T05:35:45.649Z,100.00
2022-09-26T05:38:53.577Z,100.00
2022-09-26T05:41:58.998Z,100.00
2022-09-26T05:45:04.902Z,100.00
2022-09-26T05:48:10.550Z,100.00
2022-09-26T05:51:16.209Z,100.00
2022-09-26T05:54:21.518Z,100.00
2022-09-26T05:57:27.052Z,100.00
2022-09-26T06:00:32.462Z,100.00
2022-09-26T06:03:37.768Z,100.00
2022-09-26T06:06:44.339Z,100.00
2022-09-26T06:09:51.284Z,100.00
2022-09-26T06:12:57.009Z,100.00
2022-09-26T06:16:08.123Z,100.00
2022-09-26T06:19:13.968Z,100.00
2022-09-26T06:22:28.965Z,100.00
2022-09-26T06:25:34.616Z,100.00
2022-09-26T06:28:40.437Z,100.00
2022-09-26T06:31:46.425Z,100.00
2022-09-26T06:34:51.832Z,100.00
2022-09-26T06:37:59.073Z,100.00
2022-09-26T06:41:04.949Z,100.00
2022-09-26T06:44:10.871Z,100.00
2022-09-26T06:47:18.043Z,100.00
2022-09-26T06:50:24.452Z,100.00
2022-09-26T06:53:29.879Z,100.00
2022-09-26T06:56:35.515Z,100.00
2022-09-26T06:59:41.031Z,100.00
2022-09-26T07:02:46.484Z,100.00
2022-09-26T07:05:51.860Z,100.00
2022-09-26T07:09:02.656Z,100.00
2022-09-26T07:12:14.798Z,100.00
2022-09-26T07:15:21.019Z,100.00
2022-09-26T07:18:26.988Z,100.00
2022-09-26T07:21:32.547Z,100.00
2022-09-26T07:24:38.398Z,100.00
2022-09-26T07:27:43.644Z,100.00
2022-09-26T07:30:49.027Z,100.00
2022-09-26T07:33:54.628Z,100.00
2022-09-26T07:37:00.353Z,100.00
2022-09-26T07:40:05.964Z,100.00
2022-09-26T07:43:20.726Z,100.00
2022-09-26T07:46:47.405Z,100.00
2022-09-26T07:53:41.431Z,100.00
2022-09-26T07:56:46.896Z,100.00
2022-09-26T07:59:54.274Z,100.00
2022-09-26T08:03:00.950Z,100.00
2022-09-26T08:06:14.768Z,100.00
2022-09-26T08:09:20.411Z,100.00
2022-09-26T08:12:26.521Z,100.00
2022-09-26T08:15:35.623Z,100.00
2022-09-26T08:18:42.385Z,100.00
2022-09-26T08:21:48.087Z,100.00
2022-09-26T08:24:55.393Z,100.00
2022-09-26T08:28:00.878Z,100.00
2022-09-26T08:31:06.397Z,100.00
2022-09-26T08:34:13.148Z,100.00
2022-09-26T08:37:23.688Z,100.00
2022-09-26T08:40:29.032Z,100.00
2022-09-26T08:47:02.669Z,100.00
2022-09-26T08:50:12.189Z,100.00
2022-09-26T08:53:24.253Z,100.00
2022-09-26T08:56:30.275Z,100.00
2022-09-26T08:59:35.973Z,100.00
2022-09-26T09:02:43.118Z,100.00
2022-09-26T09:05:48.830Z,100.00
2022-09-26T09:08:55.400Z,100.00
2022-09-26T09:12:01.093Z,100.00
2022-09-26T09:15:26.544Z,100.00
2022-09-26T09:18:33.055Z,100.00
2022-09-26T09:21:41.774Z,100.00
2022-09-26T09:24:50.189Z,100.00
2022-09-26T09:28:00.078Z,100.00
2022-09-26T09:31:09.866Z,100.00
2022-09-26T09:34:15.272Z,100.00
2022-09-26T09:37:20.950Z,100.00
2022-09-26T09:40:26.690Z,100.00
2022-09-26T09:43:32.583Z,100.00
2022-09-26T09:46:38.029Z,100.00
2022-09-26T09:49:43.816Z,100.00
2022-09-26T09:52:48.967Z,99.84
2022-09-26T09:55:54.233Z,100.00
2022-09-26T09:58:59.519Z,99.37
2022-09-26T10:02:05.630Z,100.00
2022-09-26T10:05:13.492Z,100.00
2022-09-26T10:12:04.595Z,100.00
2022-09-26T10:15:10.588Z,100.00
2022-09-26T10:18:26.694Z,100.00
2022-09-26T10:21:34.484Z,99.53
2022-09-26T10:24:41.119Z,100.00
2022-09-26T10:27:46.806Z,100.00
2022-09-26T10:30:52.728Z,100.00
2022-09-26T10:34:00.399Z,100.00
2022-09-26T10:37:05.670Z,100.00
2022-09-26T10:40:38.334Z,98.57
2022-09-26T10:43:44.519Z,97.58
2022-09-26T10:46:51.513Z,98.22
2022-09-26T10:49:57.342Z,93.14
2022-09-26T10:53:08.835Z,91.02
2022-09-26T10:56:26.038Z,90.58
2022-09-26T10:59:31.751Z,90.93
2022-09-26T11:02:37.910Z,91.39
2022-09-26T11:06:00.396Z,91.81
2022-09-26T11:09:05.847Z,90.76
2022-09-26T11:12:11.503Z,87.98
2022-09-26T11:15:17.018Z,85.63
2022-09-26T11:18:22.789Z,84.27
2022-09-26T11:21:29.699Z,85.61
2022-09-26T11:24:37.313Z,84.88
2022-09-26T11:27:49.680Z,85.63
2022-09-26T11:30:56.577Z,85.30
2022-09-26T11:34:02.416Z,86.43
2022-09-26T11:37:08.342Z,86.50
2022-09-26T11:40:13.888Z,86.81
2022-09-26T11:43:19.465Z,88.88
2022-09-26T11:46:25.505Z,87.33
2022-09-26T11:49:31.092Z,87.04
2022-09-26T11:52:36.795Z,87.66
2022-09-26T11:55:42.084Z,87.54
2022-09-26T11:58:47.474Z,86.95
2022-09-26T12:01:54.953Z,88.61
2022-09-26T12:05:14.221Z,90.72
2022-09-26T12:08:20.599Z,89.75
2022-09-26T12:11:26.580Z,89.20
2022-09-26T12:14:36.840Z,86.11
2022-09-26T12:17:42.414Z,87.05
2022-09-26T12:20:47.860Z,85.86
2022-09-26T12:23:53.400Z,87.33
2022-09-26T12:26:59.079Z,85.99
2022-09-26T12:30:12.466Z,87.17
2022-09-26T12:33:21.090Z,88.64
2022-09-26T12:36:27.255Z,87.15
2022-09-26T12:39:32.717Z,85.62
2022-09-26T12:42:38.212Z,86.02
2022-09-26T12:45:43.827Z,84.93
2022-09-26T12:48:49.382Z,84.74
2022-09-26T12:51:55.953Z,82.70
2022-09-26T12:55:01.868Z,84.35
2022-09-26T12:58:07.906Z,85.28
2022-09-26T13:01:17.049Z,85.90
2022-09-26T13:04:22.907Z,85.27
2022-09-26T13:07:28.741Z,85.54
2022-09-26T13:10:36.516Z,84.91
2022-09-26T13:13:44.000Z,86.07
2022-09-26T13:16:49.765Z,85.80
2022-09-26T13:19:56.155Z,86.27
2022-09-26T13:23:05.134Z,85.30
2022-09-26T13:26:10.957Z,85.62
2022-09-26T13:29:18.019Z,75.07
2022-09-26T13:32:23.956Z,76.16
2022-09-26T13:35:29.179Z,75.27
2022-09-26T13:38:36.020Z,74.08
2022-09-26T13:41:41.625Z,74.05
2022-09-26T13:44:47.262Z,73.52
2022-09-26T13:47:55.160Z,70.93
2022-09-26T13:51:01.755Z,70.80
2022-09-26T13:54:07.321Z,72.47
2022-09-26T13:57:13.255Z,71.17
2022-09-26T14:00:19.637Z,72.62
2022-09-26T14:03:25.699Z,73.75
2022-09-26T14:06:32.134Z,74.89
2022-09-26T14:09:36.717Z,75.01
2022-09-26T14:12:42.515Z,77.60
2022-09-26T14:15:48.826Z,77.42
2022-09-26T14:18:55.022Z,78.22
2022-09-26T14:22:02.756Z,78.37
2022-09-26T14:25:08.785Z,80.28
2022-09-26T14:28:17.437Z,79.89
2022-09-26T14:31:23.347Z,80.43
2022-09-26T14:34:33.049Z,80.57
2022-09-26T14:37:38.421Z,81.11
2022-09-26T14:40:43.993Z,81.54
2022-09-26T14:43:49.751Z,81.48
2022-09-26T14:46:55.759Z,81.46
2022-09-26T14:50:22.498Z,80.69
2022-09-26T14:53:28.217Z,80.62
2022-09-26T14:56:35.811Z,81.66
2022-09-26T14:59:41.367Z,81.83
2022-09-26T15:02:50.266Z,81.76
2022-09-26T15:05:56.884Z,82.66
2022-09-26T15:09:02.646Z,84.20
2022-09-26T15:12:13.016Z,89.06
2022-09-26T15:15:19.424Z,94.75
2022-09-26T15:18:29.175Z,97.00
2022-09-26T15:21:36.575Z,98.23
2022-09-26T15:24:43.613Z,99.27
2022-09-26T15:27:49.052Z,100.00
2022-09-26T15:30:55.748Z,99.70
2022-09-26T15:34:02.931Z,99.16
2022-09-26T15:37:08.573Z,97.33
2022-09-26T15:40:14.538Z,95.76
2022-09-26T15:43:22.339Z,96.41
2022-09-26T15:46:27.829Z,94.88
2022-09-26T15:49:33.197Z,95.38
2022-09-26T15:52:45.086Z,95.48
2022-09-26T15:55:52.037Z,95.52
2022-09-26T15:58:57.624Z,95.50
2022-09-26T16:02:03.283Z,96.18
2022-09-26T16:05:12.749Z,96.29
2022-09-26T16:08:19.042Z,96.89
2022-09-26T16:11:27.431Z,96.76
2022-09-26T16:14:32.980Z,97.83
2022-09-26T16:17:38.884Z,98.98
2022-09-26T16:20:45.806Z,99.45
2022-09-26T16:23:57.557Z,99.99
2022-09-26T16:27:02.851Z,100.00
2022-09-26T16:30:08.136Z,100.00
2022-09-26T16:36:39.631Z,100.00
2022-09-26T16:39:51.985Z,100.00
2022-09-26T16:42:57.584Z,100.00
2022-09-26T16:46:08.737Z,100.00
2022-09-26T16:49:14.536Z,100.00
2022-09-26T16:52:21.480Z,100.00
2022-09-26T16:55:32.906Z,100.00
2022-09-26T16:58:47.265Z,100.00
2022-09-26T17:02:04.320Z,100.00
2022-09-26T17:05:10.922Z,100.00
2022-09-26T17:08:17.573Z,100.00
2022-09-26T17:11:23.455Z,100.00
2022-09-26T17:14:29.149Z,100.00
2022-09-26T17:17:38.473Z,100.00
2022-09-26T17:20:44.247Z,100.00
2022-09-26T17:23:50.079Z,100.00
2022-09-26T17:26:56.128Z,100.00
2022-09-26T17:30:01.802Z,100.00
2022-09-26T17:33:07.302Z,100.00
2022-09-26T17:36:13.432Z,100.00
2022-09-26T17:39:22.774Z,100.00
2022-09-26T17:42:30.715Z,100.00
2022-09-26T17:45:40.046Z,100.00
2022-09-26T17:48:45.803Z,100.00
2022-09-26T17:51:54.298Z,100.00
2022-09-26T17:55:00.144Z,100.00
2022-09-26T17:58:12.343Z,100.00
2022-09-26T18:04:40.481Z,100.00
2022-09-26T18:07:45.865Z,100.00
2022-09-26T18:10:51.645Z,100.00
2022-09-26T18:13:57.635Z,100.00
2022-09-26T18:17:04.486Z,100.00
2022-09-26T18:20:10.249Z,100.00
2022-09-26T18:23:16.998Z,100.00
2022-09-26T18:26:23.134Z,100.00
2022-09-26T18:29:29.152Z,100.00
2022-09-26T18:32:35.093Z,100.00
2022-09-26T18:35:43.308Z,100.00
2022-09-26T18:38:48.761Z,100.00
2022-09-26T18:41:55.003Z,100.00
2022-09-26T18:45:00.626Z,100.00
2022-09-26T18:48:06.075Z,100.00
2022-09-26T18:51:12.121Z,100.00
2022-09-26T18:54:17.991Z,100.00
2022-09-26T18:57:41.260Z,100.00
2022-09-26T19:04:11.943Z,100.00
2022-09-26T19:07:21.318Z,100.00
2022-09-26T19:10:27.384Z,100.00
2022-09-26T19:13:32.882Z,100.00
2022-09-26T19:16:40.864Z,100.00
2022-09-26T19:19:49.139Z,100.00
2022-09-26T19:22:59.571Z,100.00
2022-09-26T19:26:05.417Z,100.00
2022-09-26T19:29:12.177Z,100.00
2022-09-26T19:32:18.093Z,100.00
2022-09-26T19:35:28.214Z,100.00
2022-09-26T19:38:33.841Z,100.00
2022-09-26T19:41:39.280Z,100.00
2022-09-26T19:44:44.735Z,100.00
2022-09-26T19:47:50.563Z,100.00
2022-09-26T19:50:55.810Z,100.00
2022-09-26T19:54:06.084Z,100.00
2022-09-26T19:57:11.605Z,100.00
2022-09-26T20:00:17.859Z,100.00
2022-09-26T20:03:26.496Z,100.00
2022-09-26T20:06:32.118Z,100.00
2022-09-26T20:09:39.196Z,100.00
2022-09-26T20:12:44.701Z,100.00
2022-09-26T20:15:50.140Z,100.00
2022-09-26T20:18:56.504Z,100.00
2022-09-26T20:22:03.240Z,100.00
2022-09-26T20:25:08.899Z,100.00
2022-09-26T20:28:14.210Z,100.00
2022-09-26T20:31:20.442Z,100.00
2022-09-26T20:34:27.022Z,100.00
2022-09-26T20:37:32.527Z,100.00
2022-09-26T20:40:38.596Z,100.00
2022-09-26T20:43:45.245Z,100.00
2022-09-26T20:46:51.038Z,100.00
2022-09-26T20:49:58.016Z,100.00
2022-09-26T20:53:04.206Z,100.00
2022-09-26T20:56:12.811Z,100.00
2022-09-26T20:59:18.352Z,100.00
2022-09-26T21:02:24.067Z,100.00
2022-09-26T21:05:29.811Z,100.00
2022-09-26T21:08:36.286Z,100.00
2022-09-26T21:11:48.918Z,100.00
2022-09-26T21:14:54.467Z,100.00
2022-09-26T21:18:00.289Z,100.00
2022-09-26T21:21:05.825Z,100.00
2022-09-26T21:24:11.518Z,100.00
2022-09-26T21:27:16.827Z,100.00
2022-09-26T21:30:22.511Z,100.00
2022-09-26T21:33:28.529Z,100.00
2022-09-26T21:36:35.317Z,100.00
2022-09-26T21:39:45.427Z,100.00
2022-09-26T21:42:50.822Z,100.00
2022-09-26T21:45:56.378Z,100.00
2022-09-26T21:49:01.928Z,100.00
2022-09-26T21:52:07.292Z,100.00
2022-09-26T21:55:12.903Z,100.00
2022-09-26T21:58:18.381Z,100.00
2022-09-26T22:01:24.114Z,100.00
2022-09-26T22:04:29.896Z,100.00
2022-09-26T22:07:35.534Z,100.00
2022-09-26T22:10:43.925Z,100.00
2022-09-26T22:13:49.401Z,100.00
2022-09-26T22:16:56.009Z,100.00
2022-09-26T22:20:02.006Z,100.00
2022-09-26T22:23:07.459Z,100.00
2022-09-26T22:26:13.107Z,100.00
2022-09-26T22:29:18.953Z,100.00
2022-09-26T22:32:24.402Z,100.00
2022-09-26T22:35:30.263Z,100.00
2022-09-26T22:38:35.675Z,100.00
2022-09-26T22:41:42.162Z,100.00
2022-09-26T22:44:47.867Z,100.00
2022-09-26T22:47:53.761Z,100.00
2022-09-26T22:50:59.585Z,100.00
2022-09-26T22:54:05.271Z,100.00
2022-09-26T22:57:11.480Z,100.00
2022-09-26T23:00:17.096Z,100.00
2022-09-26T23:03:22.354Z,100.00
2022-09-26T23:06:27.835Z,100.00
2022-09-26T23:09:33.399Z,100.00
2022-09-26T23:12:44.166Z,100.00
2022-09-26T23:15:49.717Z,100.00
2022-09-26T23:18:55.151Z,100.00
2022-09-26T23:22:00.910Z,100.00
2022-09-26T23:25:07.552Z,100.00
2022-09-26T23:28:13.452Z,100.00
2022-09-26T23:31:19.334Z,100.00
2022-09-26T23:34:25.061Z,100.00
2022-09-26T23:37:40.702Z,100.00
2022-09-26T23:40:46.473Z,100.00
2022-09-26T23:43:55.357Z,100.00
2022-09-26T23:47:05.041Z,100.00
2022-09-26T23:50:11.055Z,100.00
2022-09-26T23:53:23.361Z,100.00
2022-09-26T23:56:28.913Z,100.00
2022-09-26T23:59:40.719Z,100.00
